Time;durP1;ratioP1;P1;durP2;ratioP2;P2;SDS_P1;SDS_P2;PMS_P1;PMS_P2;Temp;Humidity;BMP_temperature;BMP_pressure;BME280_temperature;BME280_humidity;BME280_pressure;Samples;Min_cycle;Max_cycle;Signal;HPM_P1;HPM_P2
2023/08/20 00:00:29;;;;;;;0.00;0.00;;;17.90;81.60;;;;;;5063975;28;20049;-72
2023/08/20 00:03:03;;;;;;;0.00;0.00;;;17.90;81.50;;;;;;5046889;28;20049;-71
2023/08/20 00:05:29;;;;;;;0.00;0.00;;;17.80;81.50;;;;;;5029097;28;20487;-71
2023/08/20 00:07:55;;;;;;;0.00;0.00;;;17.70;81.50;;;;;;5029538;28;20057;-70
2023/08/20 00:10:20;;;;;;;0.00;0.00;;;17.70;81.60;;;;;;5033860;28;20384;-70
2023/08/20 00:12:46;;;;;;;0.00;0.00;;;17.70;81.80;;;;;;5051185;28;20096;-72
2023/08/20 00:15:12;;;;;;;0.00;0.00;;;17.60;82.00;;;;;;5066738;28;20045;-71
2023/08/20 00:17:39;;;;;;;0.00;0.00;;;17.70;82.40;;;;;;5035254;28;20049;-71
2023/08/20 00:20:12;;;;;;;0.00;0.00;;;17.70;82.50;;;;;;5066914;28;20057;-71
2023/08/20 00:22:43;;;;;;;0.00;0.00;;;17.70;82.60;;;;;;5051094;28;20144;-70
2023/08/20 00:25:09;;;;;;;0.00;0.00;;;17.60;82.50;;;;;;5034088;28;20136;-71
2023/08/20 00:27:35;;;;;;;0.00;0.00;;;17.60;82.60;;;;;;5035338;28;20331;-70
2023/08/20 00:30:01;;;;;;;0.00;0.00;;;17.60;83.20;;;;;;5034618;28;20476;-71
2023/08/20 00:32:26;;;;;;;0.00;0.00;;;17.70;83.20;;;;;;5035120;28;20131;-71
2023/08/20 00:34:52;;;;;;;0.00;0.00;;;17.70;83.30;;;;;;5034723;28;20045;-71
2023/08/20 00:37:17;;;;;;;0.00;0.00;;;17.70;83.30;;;;;;5034306;28;20052;-70
2023/08/20 00:39:43;;;;;;;0.00;0.00;;;17.70;83.30;;;;;;5034713;28;20049;-70
2023/08/20 00:42:09;;;;;;;0.10;0.10;;;17.70;83.10;;;;;;5034854;28;20041;-70
2023/08/20 00:44:35;;;;;;;0.00;0.00;;;17.60;82.90;;;;;;5034965;28;20042;-71
2023/08/20 00:47:05;;;;;;;0.00;0.00;;;17.60;82.70;;;;;;5033730;28;20045;-71
2023/08/20 00:49:31;;;;;;;0.00;0.00;;;17.50;82.50;;;;;;5024325;28;20056;-71
2023/08/20 00:51:58;;;;;;;0.00;0.00;;;17.50;82.40;;;;;;5033644;28;20631;-71
2023/08/20 00:54:24;;;;;;;0.00;0.00;;;17.40;82.40;;;;;;5066595;28;20064;-71
2023/08/20 00:56:50;;;;;;;0.00;0.00;;;17.30;82.40;;;;;;5065600;28;20049;-70
2023/08/20 00:59:17;;;;;;;0.00;0.00;;;17.30;82.50;;;;;;5033995;28;20041;-72
2023/08/20 01:01:43;;;;;;;0.00;0.00;;;17.20;82.60;;;;;;5033772;28;20045;-71
2023/08/20 01:04:09;;;;;;;0.00;0.00;;;17.20;82.90;;;;;;5015398;28;20490;-71
2023/08/20 01:06:40;;;;;;;0.00;0.00;;;17.30;83.00;;;;;;5034124;28;20045;-71
2023/08/20 01:09:22;;;;;;;0.00;0.00;;;17.20;82.90;;;;;;5066729;28;20099;-70
2023/08/20 01:12:02;;;;;;;0.00;0.00;;;17.20;82.80;;;;;;5034676;28;20127;-72
2023/08/20 01:14:28;;;;;;;0.00;0.00;;;17.20;83.00;;;;;;5031334;28;20106;-71
2023/08/20 01:16:54;;;;;;;0.00;0.00;;;17.20;82.90;;;;;;5033569;28;20041;-72
2023/08/20 01:19:21;;;;;;;0.00;0.00;;;17.20;83.20;;;;;;5066039;28;20048;-72
2023/08/20 01:22:15;;;;;;;0.00;0.00;;;17.20;83.30;;;;;;5064573;28;20080;-72
2023/08/20 01:25:11;;;;;;;0.00;0.00;;;17.20;83.30;;;;;;5031182;28;20406;-71
2023/08/20 01:27:46;;;;;;;0.00;0.00;;;17.20;83.40;;;;;;5103247;22;20057;-71
2023/08/20 01:30:12;;;;;;;0.00;0.00;;;17.20;83.50;;;;;;5052726;28;20144;-71
2023/08/20 01:32:42;;;;;;;0.00;0.00;;;17.20;83.60;;;;;;5053880;28;20053;-72
2023/08/20 01:35:16;;;;;;;0.00;0.00;;;17.20;83.60;;;;;;5033244;28;20056;-72
2023/08/20 01:37:41;;;;;;;0.00;0.00;;;17.20;83.70;;;;;;5050681;28;20049;-72
2023/08/20 01:40:10;;;;;;;0.00;0.00;;;17.20;83.60;;;;;;5050166;28;20041;-72
2023/08/20 01:42:40;;;;;;;0.00;0.00;;;17.10;83.50;;;;;;5037080;28;20098;-72
2023/08/20 01:45:06;;;;;;;0.00;0.00;;;17.10;83.50;;;;;;5051763;28;20057;-73
2023/08/20 01:47:33;;;;;;;0.00;0.00;;;17.10;83.30;;;;;;5052266;28;20045;-72
2023/08/20 01:49:59;;;;;;;0.00;0.00;;;17.10;83.30;;;;;;5035660;28;20117;-72
2023/08/20 01:52:25;;;;;;;0.00;0.00;;;17.10;83.50;;;;;;5052266;28;20127;-73
2023/08/20 01:54:51;;;;;;;0.00;0.00;;;17.10;83.60;;;;;;5051705;28;20049;-71
2023/08/20 01:57:16;;;;;;;0.00;0.00;;;17.10;83.70;;;;;;5051436;28;20041;-72
2023/08/20 01:59:42;;;;;;;0.00;0.00;;;17.10;83.70;;;;;;5052387;28;20518;-73
2023/08/20 02:02:08;;;;;;;0.05;0.05;;;17.10;83.80;;;;;;5050261;28;20397;-71
2023/08/20 02:04:34;;;;;;;0.00;0.00;;;17.10;83.90;;;;;;5047053;28;20353;-72
2023/08/20 02:07:00;;;;;;;0.00;0.00;;;17.10;84.10;;;;;;5052992;28;20045;-72
2023/08/20 02:09:25;;;;;;;0.00;0.00;;;17.10;84.00;;;;;;5052370;28;20053;-72
2023/08/20 02:11:52;;;;;;;0.00;0.00;;;17.10;84.00;;;;;;5053079;28;20040;-73
2023/08/20 02:14:19;;;;;;;0.00;0.00;;;17.10;83.80;;;;;;5043773;28;20132;-72
2023/08/20 02:16:46;;;;;;;0.00;0.00;;;17.10;83.90;;;;;;5052553;28;20493;-72
2023/08/20 02:19:12;;;;;;;0.00;0.00;;;17.10;84.10;;;;;;5052040;28;20045;-71
2023/08/20 02:21:37;;;;;;;0.00;0.00;;;17.10;84.10;;;;;;5051182;28;20039;-71
2023/08/20 02:24:03;;;;;;;0.00;0.00;;;17.10;84.00;;;;;;5038261;28;20049;-72
2023/08/20 02:26:29;;;;;;;0.00;0.00;;;17.10;84.00;;;;;;5031090;28;20064;-73
2023/08/20 02:28:55;;;;;;;0.00;0.00;;;17.10;84.10;;;;;;5032748;28;20099;-72
2023/08/20 02:31:20;;;;;;;0.00;0.00;;;17.10;84.20;;;;;;5032026;28;20053;-71
2023/08/20 02:33:47;;;;;;;0.00;0.00;;;17.10;84.10;;;;;;5030107;28;20049;-71
2023/08/20 02:36:12;;;;;;;0.00;0.00;;;17.00;84.10;;;;;;5032890;28;20096;-71
2023/08/20 02:38:38;;;;;;;0.00;0.00;;;17.00;84.20;;;;;;5032554;28;20077;-71
2023/08/20 02:41:04;;;;;;;0.00;0.00;;;17.10;84.40;;;;;;5031297;28;20398;-72
2023/08/20 02:43:29;;;;;;;0.00;0.00;;;17.00;84.40;;;;;;5032260;28;20049;-72
2023/08/20 02:45:55;;;;;;;0.00;0.00;;;17.00;84.40;;;;;;5032319;28;20046;-72
2023/08/20 02:48:21;;;;;;;0.00;0.00;;;17.00;84.50;;;;;;5032738;28;20099;-73
2023/08/20 02:50:46;;;;;;;0.00;0.00;;;17.00;84.50;;;;;;5031416;28;20080;-73
2023/08/20 02:53:12;;;;;;;0.00;0.00;;;17.00;84.60;;;;;;5031347;28;20457;-72
2023/08/20 02:55:38;;;;;;;0.00;0.00;;;17.00;84.60;;;;;;5032603;28;20095;-72
2023/08/20 02:58:03;;;;;;;0.00;0.00;;;17.00;84.70;;;;;;5031221;28;20053;-73
2023/08/20 03:00:30;;;;;;;0.00;0.00;;;17.00;84.60;;;;;;5032383;28;20406;-73
2023/08/20 03:02:56;;;;;;;0.10;0.10;;;17.00;84.60;;;;;;5031464;28;20498;-71
2023/08/20 03:05:22;;;;;;;0.00;0.00;;;17.00;84.50;;;;;;5031016;28;20050;-73
2023/08/20 03:07:48;;;;;;;0.00;0.00;;;16.90;84.40;;;;;;5031029;28;20041;-71
2023/08/20 03:10:13;;;;;;;0.00;0.00;;;16.90;84.40;;;;;;5031740;28;20406;-71
2023/08/20 03:12:39;;;;;;;0.00;0.00;;;16.90;84.40;;;;;;5023800;28;20495;-73
2023/08/20 03:15:05;;;;;;;0.10;0.10;;;16.90;84.40;;;;;;5027909;28;20053;-73
2023/08/20 03:17:30;;;;;;;0.00;0.00;;;16.90;84.50;;;;;;5030491;28;20107;-71
2023/08/20 03:19:58;;;;;;;0.00;0.00;;;16.90;84.50;;;;;;5031277;28;20085;-73
2023/08/20 03:22:24;;;;;;;0.00;0.00;;;16.80;84.50;;;;;;5031693;28;20045;-71
2023/08/20 03:24:50;;;;;;;0.00;0.00;;;16.90;84.50;;;;;;5030975;28;20049;-72
2023/08/20 03:27:17;;;;;;;0.00;0.00;;;16.80;84.30;;;;;;5030782;28;20053;-71
2023/08/20 03:29:42;;;;;;;0.00;0.00;;;16.80;84.40;;;;;;5030355;28;20123;-71
2023/08/20 03:32:08;;;;;;;0.00;0.00;;;16.80;84.30;;;;;;5030724;28;20475;-72
2023/08/20 03:34:34;;;;;;;0.00;0.00;;;16.80;84.20;;;;;;5031782;28;20079;-71
2023/08/20 03:36:59;;;;;;;0.00;0.00;;;16.70;84.20;;;;;;5030539;28;20483;-72
2023/08/20 03:39:25;;;;;;;0.00;0.00;;;16.60;84.20;;;;;;5030132;28;20813;-72
2023/08/20 03:41:52;;;;;;;0.00;0.00;;;16.70;84.30;;;;;;5031457;28;20049;-71
2023/08/20 03:44:18;;;;;;;0.00;0.00;;;16.70;84.70;;;;;;5030203;28;20468;-71
2023/08/20 03:46:44;;;;;;;0.00;0.00;;;16.60;84.80;;;;;;5031481;28;20046;-75
2023/08/20 03:49:10;;;;;;;0.00;0.00;;;16.70;84.90;;;;;;5030583;28;20099;-72
2023/08/20 03:51:35;;;;;;;0.00;0.00;;;16.80;85.00;;;;;;5028993;28;20088;-70
2023/08/20 03:54:01;;;;;;;0.00;0.00;;;16.80;85.10;;;;;;5030251;28;20069;-70
2023/08/20 03:56:28;;;;;;;0.00;0.00;;;16.70;85.10;;;;;;5030330;28;20061;-70
2023/08/20 03:58:54;;;;;;;0.00;0.00;;;16.80;85.00;;;;;;5030685;28;20085;-70
2023/08/20 04:01:20;;;;;;;0.00;0.00;;;16.80;85.20;;;;;;5031176;28;20045;-71
2023/08/20 04:03:47;;;;;;;0.00;0.00;;;16.80;85.40;;;;;;5031479;28;20438;-70
2023/08/20 04:06:13;;;;;;;0.00;0.00;;;16.80;85.50;;;;;;5018307;28;20046;-71
2023/08/20 04:08:39;;;;;;;0.00;0.00;;;16.80;85.60;;;;;;5029633;28;20049;-71
2023/08/20 04:11:05;;;;;;;0.00;0.00;;;16.80;85.70;;;;;;5029130;28;20464;-73
2023/08/20 04:13:31;;;;;;;0.00;0.00;;;16.80;85.60;;;;;;5029216;28;20063;-71
2023/08/20 04:15:57;;;;;;;0.00;0.00;;;16.80;85.80;;;;;;5029535;28;20414;-71
2023/08/20 04:18:22;;;;;;;0.00;0.00;;;16.80;85.70;;;;;;5030924;28;20046;-72
2023/08/20 04:20:51;;;;;;;0.00;0.00;;;16.70;85.70;;;;;;5029558;28;20127;-71
2023/08/20 04:23:16;;;;;;;0.00;0.00;;;16.70;85.70;;;;;;5029336;28;20056;-71
2023/08/20 04:25:42;;;;;;;0.00;0.00;;;16.70;85.60;;;;;;5030331;28;20037;-72
2023/08/20 04:28:07;;;;;;;0.00;0.00;;;16.70;85.50;;;;;;5030735;28;20556;-71
2023/08/20 04:30:35;;;;;;;0.00;0.00;;;16.70;85.50;;;;;;5030512;28;20041;-71
2023/08/20 04:33:01;;;;;;;0.00;0.00;;;16.70;85.50;;;;;;5030761;28;20073;-71
2023/08/20 04:35:27;;;;;;;0.00;0.00;;;16.70;85.50;;;;;;5030107;28;20084;-71
2023/08/20 04:37:53;;;;;;;0.00;0.00;;;16.70;85.50;;;;;;5000044;28;20125;-71
2023/08/20 04:40:18;;;;;;;0.00;0.00;;;16.60;85.50;;;;;;5013344;28;20069;-75
2023/08/20 04:42:44;;;;;;;0.00;0.00;;;16.60;85.50;;;;;;5010932;28;20115;-73
2023/08/20 04:45:13;;;;;;;0.00;0.00;;;16.60;85.50;;;;;;5014691;28;20041;-70
2023/08/20 04:47:39;;;;;;;0.00;0.00;;;16.70;85.60;;;;;;5017801;28;20050;-71
2023/08/20 04:50:07;;;;;;;0.00;0.00;;;16.70;85.70;;;;;;5025038;28;20433;-70
2023/08/20 04:52:34;;;;;;;0.00;0.00;;;16.70;85.70;;;;;;5015014;28;20131;-70
2023/08/20 04:55:00;;;;;;;0.00;0.00;;;16.70;85.60;;;;;;5011934;28;20050;-70
2023/08/20 04:57:26;;;;;;;0.00;0.00;;;16.70;85.60;;;;;;5015557;28;20076;-70
2023/08/20 04:59:51;;;;;;;0.00;0.00;;;16.70;85.70;;;;;;5018595;28;20037;-70
2023/08/20 05:02:17;;;;;;;0.00;0.00;;;16.80;86.00;;;;;;5019701;28;20511;-70
2023/08/20 05:04:43;;;;;;;0.00;0.00;;;16.80;86.10;;;;;;5023882;28;20056;-71
2023/08/20 05:07:09;;;;;;;0.00;0.00;;;16.80;86.20;;;;;;5025935;28;20054;-70
2023/08/20 05:09:34;;;;;;;0.00;0.00;;;16.80;86.20;;;;;;5019292;28;20053;-70
2023/08/20 05:12:00;;;;;;;0.00;0.00;;;16.80;86.20;;;;;;5016493;28;20050;-70
2023/08/20 05:14:26;;;;;;;0.00;0.00;;;16.80;86.40;;;;;;5017916;28;20136;-72
2023/08/20 05:16:51;;;;;;;0.00;0.00;;;16.80;86.40;;;;;;5017976;28;20498;-70
2023/08/20 05:19:17;;;;;;;0.00;0.00;;;16.90;86.40;;;;;;5015827;28;20049;-70
2023/08/20 05:21:42;;;;;;;0.00;0.00;;;16.90;86.50;;;;;;5020546;28;20065;-69
2023/08/20 05:24:09;;;;;;;0.00;0.00;;;17.00;86.60;;;;;;5020503;28;20071;-69
2023/08/20 05:26:35;;;;;;;0.00;0.00;;;17.00;86.60;;;;;;5017103;28;20100;-71
2023/08/20 05:29:00;;;;;;;0.00;0.00;;;17.10;86.60;;;;;;5017881;28;20502;-71
2023/08/20 05:31:26;;;;;;;0.00;0.00;;;17.10;86.70;;;;;;5023791;28;20053;-71
2023/08/20 05:33:52;;;;;;;0.00;0.00;;;17.20;86.90;;;;;;5018935;28;20056;-74
2023/08/20 05:36:17;;;;;;;0.00;0.00;;;17.20;86.90;;;;;;5017766;28;20130;-70
2023/08/20 05:38:43;;;;;;;0.00;0.00;;;17.30;87.00;;;;;;5021100;28;20050;-71
2023/08/20 05:41:09;;;;;;;0.00;0.00;;;17.30;87.30;;;;;;5019648;28;20424;-72
2023/08/20 05:43:36;;;;;;;0.00;0.00;;;17.40;87.60;;;;;;5014761;28;20149;-71
2023/08/20 05:46:02;;;;;;;0.00;0.00;;;17.40;87.70;;;;;;5013449;28;20569;-72
2023/08/20 05:48:28;;;;;;;0.00;0.00;;;17.50;87.70;;;;;;5010161;28;20924;-70
2023/08/20 05:50:54;;;;;;;0.00;0.00;;;17.60;87.80;;;;;;5018406;28;20076;-70
2023/08/20 05:53:20;;;;;;;0.00;0.00;;;17.60;88.20;;;;;;5018405;28;20053;-72
2023/08/20 05:55:46;;;;;;;0.00;0.00;;;17.60;88.10;;;;;;5015761;28;20137;-70
2023/08/20 05:58:11;;;;;;;0.00;0.00;;;17.70;88.10;;;;;;5015169;28;20180;-72
2023/08/20 06:00:37;;;;;;;0.00;0.00;;;17.80;88.10;;;;;;5016241;28;20053;-71
2023/08/20 06:03:03;;;;;;;0.00;0.00;;;17.80;88.00;;;;;;5026309;28;20075;-71
2023/08/20 06:05:29;;;;;;;0.00;0.00;;;17.80;88.00;;;;;;5013399;28;20403;-70
2023/08/20 06:07:54;;;;;;;0.00;0.00;;;17.90;88.20;;;;;;5006633;28;20056;-71
2023/08/20 06:10:20;;;;;;;0.00;0.00;;;18.00;88.30;;;;;;5017544;28;20049;-70
2023/08/20 06:12:46;;;;;;;0.08;0.08;;;18.00;88.30;;;;;;5017515;28;20057;-72
2023/08/20 06:15:11;;;;;;;0.00;0.00;;;18.10;88.20;;;;;;5018365;28;20052;-72
2023/08/20 06:17:37;;;;;;;0.00;0.00;;;18.10;88.20;;;;;;5024190;28;20479;-71
2023/08/20 06:20:07;;;;;;;0.00;0.00;;;18.10;88.20;;;;;;5024682;28;20041;-70
2023/08/20 06:22:32;;;;;;;0.00;0.00;;;18.20;88.40;;;;;;5020771;28;20064;-73
2023/08/20 06:24:58;;;;;;;0.00;0.00;;;18.20;88.60;;;;;;5015853;28;20045;-69
2023/08/20 06:27:23;;;;;;;0.00;0.00;;;18.20;88.10;;;;;;5017100;28;20076;-70
2023/08/20 06:29:50;;;;;;;0.00;0.00;;;18.30;88.30;;;;;;5015612;28;20050;-70
2023/08/20 06:32:15;;;;;;;0.00;0.00;;;18.40;88.50;;;;;;5015552;28;20049;-69
2023/08/20 06:34:41;;;;;;;0.00;0.00;;;18.40;88.60;;;;;;5017793;28;20065;-70
2023/08/20 06:37:06;;;;;;;0.00;0.00;;;18.50;88.70;;;;;;5018505;28;20054;-72
2023/08/20 06:39:32;;;;;;;0.00;0.00;;;18.50;88.80;;;;;;5020806;28;20045;-70
2023/08/20 06:41:58;;;;;;;0.00;0.00;;;18.60;88.90;;;;;;5020680;28;20046;-70
2023/08/20 06:44:23;;;;;;;0.00;0.00;;;18.60;88.80;;;;;;5026125;28;20045;-71
2023/08/20 06:46:49;;;;;;;0.00;0.00;;;18.70;89.10;;;;;;5022001;28;20064;-70
2023/08/20 06:49:15;;;;;;;0.13;0.13;;;18.70;88.90;;;;;;5025801;28;20038;-70
2023/08/20 06:51:40;;;;;;;0.00;0.00;;;18.80;89.00;;;;;;5023310;28;20565;-69
2023/08/20 06:54:06;;;;;;;0.00;0.00;;;18.80;88.90;;;;;;5023601;28;20120;-71
2023/08/20 06:56:33;;;;;;;0.00;0.00;;;18.90;88.70;;;;;;5018605;28;20057;-70
2023/08/20 06:59:00;;;;;;;0.00;0.00;;;19.00;88.60;;;;;;5023031;28;20040;-69
2023/08/20 07:01:25;;;;;;;0.00;0.00;;;18.90;88.80;;;;;;5022892;28;21892;-70
2023/08/20 07:03:51;;;;;;;0.00;0.00;;;19.00;88.90;;;;;;5027359;28;20072;-70
2023/08/20 07:06:18;;;;;;;0.00;0.00;;;19.00;88.80;;;;;;5029002;28;20072;-72
2023/08/20 07:08:44;;;;;;;0.00;0.00;;;19.00;88.70;;;;;;5028884;28;20419;-70
2023/08/20 07:11:10;;;;;;;0.00;0.00;;;19.10;88.60;;;;;;5029587;28;20502;-69
2023/08/20 07:13:35;;;;;;;0.00;0.00;;;19.10;88.70;;;;;;5029837;28;20079;-69
2023/08/20 07:16:02;;;;;;;0.00;0.00;;;19.10;88.70;;;;;;5030066;28;20053;-70
2023/08/20 07:18:28;;;;;;;0.00;0.00;;;19.20;88.80;;;;;;5028240;28;20120;-69
2023/08/20 07:20:55;;;;;;;0.00;0.00;;;19.30;89.00;;;;;;5029504;28;20081;-69
2023/08/20 07:23:21;;;;;;;0.00;0.00;;;19.20;89.20;;;;;;5029051;28;20503;-69
2023/08/20 07:25:48;;;;;;;0.00;0.00;;;19.30;88.50;;;;;;5028995;28;20122;-68
2023/08/20 07:28:14;;;;;;;0.93;0.52;;;19.40;88.80;;;;;;5028358;28;20057;-69
2023/08/20 07:30:40;;;;;;;0.00;0.00;;;19.40;88.60;;;;;;5028586;28;20054;-68
2023/08/20 07:33:06;;;;;;;0.00;0.00;;;19.50;88.60;;;;;;5028065;28;20069;-68
2023/08/20 07:35:32;;;;;;;0.00;0.00;;;19.50;88.70;;;;;;5029438;28;20049;-68
2023/08/20 07:37:57;;;;;;;0.00;0.00;;;19.60;88.80;;;;;;5028378;28;20091;-68
2023/08/20 07:40:23;;;;;;;0.00;0.00;;;19.60;88.60;;;;;;5030134;28;20042;-69
2023/08/20 07:42:50;;;;;;;0.00;0.00;;;19.60;88.60;;;;;;5030180;28;20041;-68
2023/08/20 07:45:16;;;;;;;0.00;0.00;;;19.70;88.30;;;;;;5026022;28;20061;-69
2023/08/20 07:47:42;;;;;;;0.00;0.00;;;19.70;88.10;;;;;;5028891;28;20048;-69
2023/08/20 07:50:07;;;;;;;0.00;0.00;;;19.80;88.10;;;;;;5029041;28;20073;-69
2023/08/20 07:52:33;;;;;;;0.00;0.00;;;19.90;88.10;;;;;;5026528;28;20053;-69
2023/08/20 07:54:59;;;;;;;0.00;0.00;;;19.80;87.50;;;;;;5027862;28;20479;-69
2023/08/20 07:57:25;;;;;;;0.00;0.00;;;19.90;87.30;;;;;;5030380;28;20074;-68
2023/08/20 07:59:51;;;;;;;0.10;0.10;;;19.90;87.10;;;;;;5029699;28;20042;-70
2023/08/20 08:02:17;;;;;;;0.00;0.00;;;20.00;87.00;;;;;;5030374;28;20045;-69
2023/08/20 08:04:43;;;;;;;0.00;0.00;;;20.10;87.00;;;;;;5029951;28;20042;-69
2023/08/20 08:07:10;;;;;;;0.10;0.10;;;20.10;86.80;;;;;;5026360;28;20548;-69
2023/08/20 08:09:35;;;;;;;0.00;0.00;;;20.20;86.60;;;;;;5015526;28;20050;-68
2023/08/20 08:12:02;;;;;;;2.28;1.65;;;20.30;86.40;;;;;;5013756;28;20049;-69
2023/08/20 08:14:28;;;;;;;0.10;0.10;;;20.30;85.80;;;;;;5022987;28;20495;-71
2023/08/20 08:16:54;;;;;;;0.10;0.10;;;20.40;85.60;;;;;;5019718;28;20146;-70
2023/08/20 08:19:20;;;;;;;0.00;0.00;;;20.40;85.20;;;;;;5015312;28;20053;-69
2023/08/20 08:21:46;;;;;;;0.00;0.00;;;20.50;85.20;;;;;;5014740;28;20521;-69
2023/08/20 08:24:13;;;;;;;0.00;0.00;;;20.60;85.10;;;;;;5021206;28;20057;-69
2023/08/20 08:26:39;;;;;;;0.00;0.00;;;20.70;84.90;;;;;;5015851;28;21662;-69
2023/08/20 08:29:06;;;;;;;0.00;0.00;;;20.60;84.40;;;;;;5013052;28;20064;-68
2023/08/20 08:31:32;;;;;;;0.00;0.00;;;20.80;83.70;;;;;;5017248;28;20089;-69
2023/08/20 08:33:57;;;;;;;0.00;0.00;;;20.70;82.50;;;;;;5016438;28;20108;-68
2023/08/20 08:36:24;;;;;;;0.00;0.00;;;20.80;82.90;;;;;;5016273;28;20061;-69
2023/08/20 08:38:51;;;;;;;0.00;0.00;;;20.70;82.80;;;;;;5021172;28;20057;-68
2023/08/20 08:41:18;;;;;;;0.00;0.00;;;20.80;83.20;;;;;;5016995;28;20446;-68
2023/08/20 08:43:43;;;;;;;0.00;0.00;;;20.80;83.00;;;;;;5024281;28;20457;-70
2023/08/20 08:46:16;;;;;;;0.00;0.00;;;20.90;82.90;;;;;;5021224;28;20050;-69
2023/08/20 08:48:46;;;;;;;0.00;0.00;;;20.90;82.40;;;;;;5022431;28;20045;-69
2023/08/20 08:51:13;;;;;;;2.10;0.80;;;20.80;82.80;;;;;;5020988;28;20057;-68
2023/08/20 08:53:39;;;;;;;5.68;1.38;;;20.90;82.40;;;;;;5019447;28;20100;-69
2023/08/20 08:56:07;;;;;;;4.40;0.85;;;20.90;82.50;;;;;;5018064;28;20058;-68
2023/08/20 08:58:33;;;;;;;0.00;0.00;;;21.00;81.60;;;;;;5018642;28;20630;-69
2023/08/20 09:01:00;;;;;;;0.00;0.00;;;21.00;81.50;;;;;;5016880;28;20054;-70
2023/08/20 09:03:25;;;;;;;0.00;0.00;;;21.00;81.30;;;;;;5018408;28;20049;-69
2023/08/20 09:06:07;;;;;;;0.00;0.00;;;21.00;80.80;;;;;;5026688;28;20132;-71
2023/08/20 09:08:33;;;;;;;0.63;0.63;;;20.90;80.30;;;;;;5026012;28;20151;-69
2023/08/20 09:11:00;;;;;;;0.00;0.00;;;21.00;80.60;;;;;;5029049;28;20514;-69
2023/08/20 09:13:39;;;;;;;0.00;0.00;;;21.00;79.60;;;;;;5017053;28;20060;-69
2023/08/20 09:16:07;;;;;;;0.10;0.10;;;21.10;80.50;;;;;;5016291;28;20065;-71
2023/08/20 09:18:40;;;;;;;0.00;0.00;;;21.30;80.50;;;;;;5015796;28;20045;-68
2023/08/20 09:21:10;;;;;;;0.00;0.00;;;21.50;80.20;;;;;;5014467;28;20054;-69
2023/08/20 09:23:37;;;;;;;0.00;0.00;;;21.50;80.20;;;;;;5018573;28;20049;-69
2023/08/20 09:26:04;;;;;;;0.00;0.00;;;21.60;79.40;;;;;;5015915;28;20053;-69
2023/08/20 09:28:43;;;;;;;0.15;0.13;;;21.60;79.30;;;;;;5016982;28;20137;-69
2023/08/20 09:31:09;;;;;;;0.00;0.00;;;21.60;78.00;;;;;;5021920;28;20423;-68
2023/08/20 09:33:35;;;;;;;0.00;0.00;;;21.70;78.50;;;;;;5023670;28;20096;-70
2023/08/20 09:36:04;;;;;;;0.00;0.00;;;21.70;78.20;;;;;;5024781;28;20061;-68
2023/08/20 09:38:29;;;;;;;0.00;0.00;;;21.90;78.60;;;;;;5019263;28;20053;-68
2023/08/20 09:40:58;;;;;;;0.00;0.00;;;22.00;77.90;;;;;;5015782;28;20065;-69
2023/08/20 09:43:28;;;;;;;0.00;0.00;;;22.10;78.40;;;;;;5013542;28;20042;-69
2023/08/20 09:45:55;;;;;;;0.00;0.00;;;22.10;78.10;;;;;;5015351;28;20411;-68
2023/08/20 09:48:21;;;;;;;0.00;0.00;;;22.30;77.50;;;;;;5016188;28;20621;-70
2023/08/20 09:50:54;;;;;;;0.00;0.00;;;22.30;76.60;;;;;;5017362;28;20056;-69
2023/08/20 09:53:30;;;;;;;0.00;0.00;;;22.40;77.10;;;;;;5014496;28;20089;-69
2023/08/20 09:56:09;;;;;;;0.00;0.00;;;22.40;76.50;;;;;;5026339;28;20393;-71
2023/08/20 09:58:37;;;;;;;0.00;0.00;;;22.20;72.30;;;;;;5024058;28;20096;-71
2023/08/20 10:01:03;;;;;;;1.45;0.85;;;22.30;74.20;;;;;;5021855;28;20057;-69
2023/08/20 10:03:30;;;;;;;0.00;0.00;;;22.20;74.70;;;;;;5020621;28;20124;-69
2023/08/20 10:05:58;;;;;;;0.00;0.00;;;22.10;75.70;;;;;;5018192;28;20577;-70
2023/08/20 10:08:24;;;;;;;0.00;0.00;;;22.20;75.20;;;;;;5027305;28;20056;-69
2023/08/20 10:10:50;;;;;;;0.08;0.08;;;22.20;75.50;;;;;;5004032;28;20060;-68
2023/08/20 10:13:17;;;;;;;0.00;0.00;;;22.20;75.20;;;;;;5013385;28;20124;-69
2023/08/20 10:15:43;;;;;;;0.00;0.00;;;22.20;75.30;;;;;;5017290;28;20053;-68
2023/08/20 10:18:09;;;;;;;0.00;0.00;;;22.30;73.50;;;;;;5022802;28;20081;-69
2023/08/20 10:20:36;;;;;;;0.82;0.22;;;22.20;73.50;;;;;;5017269;28;20573;-69
2023/08/20 10:23:03;;;;;;;0.22;0.22;;;22.20;74.00;;;;;;5033756;28;20061;-69
2023/08/20 10:25:30;;;;;;;0.00;0.00;;;22.20;74.20;;;;;;5015053;28;20142;-69
2023/08/20 10:28:19;;;;;;;0.98;0.90;;;22.30;74.60;;;;;;4996929;28;20511;-69
2023/08/20 10:31:11;;;;;;;0.08;0.08;;;22.10;72.60;;;;;;5012914;28;20049;-69
2023/08/20 10:33:57;;;;;;;0.10;0.10;;;22.20;73.20;;;;;;5024559;28;20054;-68
2023/08/20 10:36:30;;;;;;;0.00;0.00;;;22.30;73.70;;;;;;5022222;28;20057;-69
2023/08/20 10:38:57;;;;;;;0.00;0.00;;;22.30;73.50;;;;;;5017064;28;20403;-69
2023/08/20 10:41:27;;;;;;;0.15;0.15;;;22.30;73.00;;;;;;5016935;28;20053;-69
2023/08/20 10:43:56;;;;;;;0.00;0.00;;;22.20;73.70;;;;;;5025434;28;20046;-72
2023/08/20 10:46:24;;;;;;;0.00;0.00;;;22.20;73.50;;;;;;5034643;28;20054;-69
2023/08/20 10:48:55;;;;;;;0.00;0.00;;;22.20;73.90;;;;;;5025678;28;20057;-69
2023/08/20 10:51:25;;;;;;;0.00;0.00;;;22.20;73.60;;;;;;5025007;28;20049;-70
2023/08/20 10:54:10;;;;;;;0.10;0.10;;;22.20;73.00;;;;;;5023761;28;21563;-70
2023/08/20 10:56:43;;;;;;;0.00;0.00;;;22.20;72.90;;;;;;5036410;28;20054;-70
2023/08/20 10:59:21;;;;;;;0.00;0.00;;;22.20;72.80;;;;;;5007800;28;20080;-70
2023/08/20 11:01:51;;;;;;;0.00;0.00;;;22.30;73.20;;;;;;5023630;28;20064;-70
2023/08/20 11:04:20;;;;;;;0.00;0.00;;;22.50;73.00;;;;;;5020769;28;20049;-71
2023/08/20 11:06:49;;;;;;;0.50;0.50;;;22.60;71.30;;;;;;5024812;28;20450;-68
2023/08/20 11:09:15;;;;;;;0.00;0.00;;;22.70;71.90;;;;;;5025710;28;20136;-69
2023/08/20 11:11:41;;;;;;;0.43;0.38;;;22.70;71.60;;;;;;5023286;28;20140;-69
2023/08/20 11:14:11;;;;;;;0.00;0.00;;;22.80;72.40;;;;;;5023034;28;20073;-69
2023/08/20 11:16:37;;;;;;;0.00;0.00;;;22.90;71.10;;;;;;5026281;28;20061;-68
2023/08/20 11:19:08;;;;;;;0.00;0.00;;;23.00;70.40;;;;;;5014568;28;20517;-69
2023/08/20 11:21:34;;;;;;;0.00;0.00;;;23.10;71.00;;;;;;5013338;28;20046;-69
2023/08/20 11:24:01;;;;;;;0.10;0.10;;;23.30;70.70;;;;;;5016458;28;20050;-70
2023/08/20 11:26:27;;;;;;;2.72;0.38;;;23.30;70.90;;;;;;5013266;28;20052;-70
2023/08/20 11:28:52;;;;;;;0.00;0.00;;;23.20;67.00;;;;;;5012642;28;20046;-70
2023/08/20 11:31:19;;;;;;;0.00;0.00;;;23.10;69.20;;;;;;5014408;28;20046;-73
2023/08/20 11:33:45;;;;;;;0.00;0.00;;;23.10;69.60;;;;;;5028171;28;20081;-72
2023/08/20 11:36:11;;;;;;;0.00;0.00;;;23.20;69.60;;;;;;5013183;28;20085;-69
2023/08/20 11:38:37;;;;;;;0.00;0.00;;;23.30;68.80;;;;;;5012673;28;20046;-71
2023/08/20 11:41:03;;;;;;;0.00;0.00;;;23.50;70.00;;;;;;5011820;28;20057;-70
2023/08/20 11:43:29;;;;;;;0.00;0.00;;;23.50;67.60;;;;;;4995478;28;20136;-71
2023/08/20 11:45:55;;;;;;;0.00;0.00;;;23.50;68.40;;;;;;5012963;28;20403;-71
2023/08/20 11:48:22;;;;;;;0.00;0.00;;;23.50;68.60;;;;;;5013493;28;20045;-70
2023/08/20 11:50:49;;;;;;;0.00;0.00;;;23.60;68.90;;;;;;5013306;28;20100;-70
2023/08/20 11:53:15;;;;;;;0.00;0.00;;;23.50;67.00;;;;;;5019951;28;20236;-70
2023/08/20 11:55:43;;;;;;;0.00;0.00;;;23.50;67.90;;;;;;5015263;28;20151;-72
2023/08/20 11:58:11;;;;;;;0.13;0.13;;;23.60;68.70;;;;;;5014888;28;20042;-71
2023/08/20 12:00:37;;;;;;;0.00;0.00;;;23.50;69.00;;;;;;5004952;28;20454;-71
2023/08/20 12:03:03;;;;;;;0.00;0.00;;;23.40;68.40;;;;;;5021444;28;20046;-71
2023/08/20 12:05:30;;;;;;;0.00;0.00;;;23.30;68.90;;;;;;5013269;28;20112;-70
2023/08/20 12:07:59;;;;;;;0.00;0.00;;;23.20;69.40;;;;;;5013795;28;20113;-71
2023/08/20 12:10:27;;;;;;;0.00;0.00;;;23.10;69.40;;;;;;5012887;28;20061;-69
2023/08/20 12:12:54;;;;;;;8.38;0.70;;;23.10;69.70;;;;;;5020022;28;20060;-71
2023/08/20 12:15:21;;;;;;;0.00;0.00;;;23.10;69.30;;;;;;5012918;28;20069;-70
2023/08/20 12:18:04;;;;;;;0.00;0.00;;;23.20;68.20;;;;;;5012825;28;20100;-71
2023/08/20 12:20:31;;;;;;;0.00;0.00;;;23.50;68.30;;;;;;5013092;28;20057;-71
2023/08/20 12:23:03;;;;;;;0.00;0.00;;;23.50;67.30;;;;;;5013990;28;20050;-71
2023/08/20 12:25:31;;;;;;;0.00;0.00;;;23.50;67.70;;;;;;5025474;28;20064;-73
2023/08/20 12:27:57;;;;;;;0.00;0.00;;;23.50;68.00;;;;;;5019625;28;20140;-71
2023/08/20 12:30:23;;;;;;;0.00;0.00;;;23.60;68.10;;;;;;5017075;28;20464;-71
2023/08/20 12:32:48;;;;;;;0.20;0.20;;;23.80;66.60;;;;;;5013762;28;20473;-72
2023/08/20 12:35:15;;;;;;;0.00;0.00;;;23.80;66.40;;;;;;5011736;28;20053;-72
2023/08/20 12:37:41;;;;;;;0.00;0.00;;;23.90;65.40;;;;;;5012642;28;20132;-72
2023/08/20 12:40:16;;;;;;;0.00;0.00;;;24.00;65.40;;;;;;5018153;28;20477;-69
2023/08/20 12:42:41;;;;;;;0.00;0.00;;;24.00;65.20;;;;;;5018245;28;20041;-68
2023/08/20 12:45:08;;;;;;;0.00;0.00;;;24.00;66.60;;;;;;5015045;28;20410;-69
2023/08/20 12:47:34;;;;;;;0.00;0.00;;;23.80;66.80;;;;;;5012348;28;20414;-68